sensor_id;sensor_type;location;lat;lon;timestamp;P1;durP1;ratioP1;P2;durP2;ratioP2
25091;SDS011;13082;52.374;4.946;2023-07-29T00:00:19;6.22;;;1.70;;
25091;SDS011;13082;52.374;4.946;2023-07-29T00:02:45;2.00;;;1.80;;
25091;SDS011;13082;52.374;4.946;2023-07-29T00:05:11;7.50;;;1.75;;
25091;SDS011;13082;52.374;4.946;2023-07-29T00:07:36;1.65;;;1.55;;
25091;SDS011;13082;52.374;4.946;2023-07-29T00:10:02;1.90;;;1.70;;
25091;SDS011;13082;52.374;4.946;2023-07-29T00:12:28;3.50;;;1.40;;
25091;SDS011;13082;52.374;4.946;2023-07-29T00:14:54;1.60;;;1.48;;
25091;SDS011;13082;52.374;4.946;2023-07-29T00:17:20;3.53;;;1.80;;
25091;SDS011;13082;52.374;4.946;2023-07-29T00:19:45;6.97;;;1.70;;
25091;SDS011;13082;52.374;4.946;2023-07-29T00:22:11;3.25;;;1.40;;
25091;SDS011;13082;52.374;4.946;2023-07-29T00:24:37;1.92;;;1.50;;
25091;SDS011;13082;52.374;4.946;2023-07-29T00:27:04;2.90;;;1.38;;
25091;SDS011;13082;52.374;4.946;2023-07-29T00:29:30;2.22;;;1.80;;
25091;SDS011;13082;52.374;4.946;2023-07-29T00:31:55;2.10;;;1.50;;
25091;SDS011;13082;52.374;4.946;2023-07-29T00:34:21;2.38;;;1.30;;
25091;SDS011;13082;52.374;4.946;2023-07-29T00:36:46;1.65;;;1.40;;
25091;SDS011;13082;52.374;4.946;2023-07-29T00:39:12;2.85;;;1.17;;
25091;SDS011;13082;52.374;4.946;2023-07-29T00:41:38;2.83;;;1.40;;
25091;SDS011;13082;52.374;4.946;2023-07-29T00:44:04;1.58;;;1.48;;
25091;SDS011;13082;52.374;4.946;2023-07-29T00:46:30;1.20;;;1.20;;
25091;SDS011;13082;52.374;4.946;2023-07-29T00:48:59;2.20;;;1.50;;
25091;SDS011;13082;52.374;4.946;2023-07-29T00:51:25;2.10;;;1.80;;
25091;SDS011;13082;52.374;4.946;2023-07-29T00:53:50;1.50;;;1.17;;
25091;SDS011;13082;52.374;4.946;2023-07-29T00:56:16;1.67;;;1.40;;
25091;SDS011;13082;52.374;4.946;2023-07-29T00:58:42;1.23;;;1.13;;
25091;SDS011;13082;52.374;4.946;2023-07-29T01:01:08;1.90;;;1.48;;
25091;SDS011;13082;52.374;4.946;2023-07-29T01:03:34;2.63;;;1.55;;
25091;SDS011;13082;52.374;4.946;2023-07-29T01:09:30;1.50;;;1.35;;
25091;SDS011;13082;52.374;4.946;2023-07-29T01:11:57;1.50;;;1.40;;
25091;SDS011;13082;52.374;4.946;2023-07-29T01:17:12;4.85;;;2.42;;
25091;SDS011;13082;52.374;4.946;2023-07-29T01:22:26;3.92;;;1.60;;
25091;SDS011;13082;52.374;4.946;2023-07-29T01:24:52;1.80;;;1.35;;
25091;SDS011;13082;52.374;4.946;2023-07-29T01:27:18;4.28;;;1.35;;
25091;SDS011;13082;52.374;4.946;2023-07-29T01:29:44;1.75;;;1.52;;
25091;SDS011;13082;52.374;4.946;2023-07-29T01:32:11;3.20;;;1.40;;
25091;SDS011;13082;52.374;4.946;2023-07-29T01:35:10;1.70;;;1.60;;
25091;SDS011;13082;52.374;4.946;2023-07-29T01:37:37;2.83;;;1.50;;
25091;SDS011;13082;52.374;4.946;2023-07-29T01:40:04;4.20;;;1.60;;
25091;SDS011;13082;52.374;4.946;2023-07-29T01:42:32;3.83;;;1.88;;
25091;SDS011;13082;52.374;4.946;2023-07-29T01:44:58;3.83;;;1.63;;
25091;SDS011;13082;52.374;4.946;2023-07-29T01:47:24;4.10;;;1.77;;
25091;SDS011;13082;52.374;4.946;2023-07-29T01:49:50;3.40;;;1.60;;
25091;SDS011;13082;52.374;4.946;2023-07-29T01:52:16;2.42;;;1.70;;
25091;SDS011;13082;52.374;4.946;2023-07-29T01:54:41;2.72;;;1.40;;
25091;SDS011;13082;52.374;4.946;2023-07-29T01:57:07;2.42;;;1.40;;
25091;SDS011;13082;52.374;4.946;2023-07-29T01:59:33;6.20;;;1.60;;
25091;SDS011;13082;52.374;4.946;2023-07-29T02:01:58;2.22;;;1.55;;
25091;SDS011;13082;52.374;4.946;2023-07-29T02:04:24;1.80;;;1.58;;
25091;SDS011;13082;52.374;4.946;2023-07-29T02:06:49;2.85;;;1.63;;
25091;SDS011;13082;52.374;4.946;2023-07-29T02:09:15;2.78;;;1.52;;
25091;SDS011;13082;52.374;4.946;2023-07-29T02:11:41;2.03;;;1.50;;
25091;SDS011;13082;52.374;4.946;2023-07-29T02:14:06;1.55;;;1.42;;
25091;SDS011;13082;52.374;4.946;2023-07-29T02:16:32;4.00;;;1.65;;
25091;SDS011;13082;52.374;4.946;2023-07-29T02:18:59;2.45;;;1.60;;
25091;SDS011;13082;52.374;4.946;2023-07-29T02:21:25;3.70;;;1.65;;
25091;SDS011;13082;52.374;4.946;2023-07-29T02:23:50;4.50;;;1.67;;
25091;SDS011;13082;52.374;4.946;2023-07-29T02:26:16;1.90;;;1.73;;
25091;SDS011;13082;52.374;4.946;2023-07-29T02:28:42;1.60;;;1.40;;
25091;SDS011;13082;52.374;4.946;2023-07-29T02:31:14;2.78;;;1.80;;
25091;SDS011;13082;52.374;4.946;2023-07-29T02:33:41;1.80;;;1.65;;
25091;SDS011;13082;52.374;4.946;2023-07-29T02:36:08;4.78;;;1.70;;
25091;SDS011;13082;52.374;4.946;2023-07-29T02:38:34;1.92;;;1.60;;
25091;SDS011;13082;52.374;4.946;2023-07-29T02:40:59;3.47;;;1.95;;
25091;SDS011;13082;52.374;4.946;2023-07-29T02:43:25;2.33;;;1.85;;
25091;SDS011;13082;52.374;4.946;2023-07-29T02:45:51;3.03;;;1.70;;
25091;SDS011;13082;52.374;4.946;2023-07-29T02:48:16;3.75;;;1.90;;
25091;SDS011;13082;52.374;4.946;2023-07-29T02:50:42;2.28;;;1.70;;
25091;SDS011;13082;52.374;4.946;2023-07-29T02:53:08;5.80;;;1.65;;
25091;SDS011;13082;52.374;4.946;2023-07-29T02:55:33;2.92;;;1.75;;
25091;SDS011;13082;52.374;4.946;2023-07-29T02:57:59;3.22;;;1.83;;
25091;SDS011;13082;52.374;4.946;2023-07-29T03:00:24;3.70;;;1.57;;
25091;SDS011;13082;52.374;4.946;2023-07-29T03:02:50;3.45;;;2.10;;
25091;SDS011;13082;52.374;4.946;2023-07-29T03:05:16;6.07;;;1.70;;
25091;SDS011;13082;52.374;4.946;2023-07-29T03:07:41;2.97;;;1.75;;
25091;SDS011;13082;52.374;4.946;2023-07-29T03:10:07;2.97;;;1.85;;
25091;SDS011;13082;52.374;4.946;2023-07-29T03:12:33;3.17;;;1.67;;
25091;SDS011;13082;52.374;4.946;2023-07-29T03:14:59;2.65;;;1.88;;
25091;SDS011;13082;52.374;4.946;2023-07-29T03:17:25;3.47;;;2.25;;
25091;SDS011;13082;52.374;4.946;2023-07-29T03:19:51;2.95;;;1.92;;
25091;SDS011;13082;52.374;4.946;2023-07-29T03:22:17;3.20;;;1.97;;
25091;SDS011;13082;52.374;4.946;2023-07-29T03:24:42;3.33;;;1.75;;
25091;SDS011;13082;52.374;4.946;2023-07-29T03:27:08;4.35;;;1.70;;
25091;SDS011;13082;52.374;4.946;2023-07-29T03:29:35;4.72;;;2.03;;
25091;SDS011;13082;52.374;4.946;2023-07-29T03:32:00;3.63;;;2.13;;
25091;SDS011;13082;52.374;4.946;2023-07-29T03:34:26;5.13;;;1.95;;
25091;SDS011;13082;52.374;4.946;2023-07-29T03:36:52;2.70;;;2.00;;
25091;SDS011;13082;52.374;4.946;2023-07-29T03:39:17;3.65;;;2.15;;
25091;SDS011;13082;52.374;4.946;2023-07-29T03:41:43;7.40;;;2.28;;
25091;SDS011;13082;52.374;4.946;2023-07-29T03:44:08;5.70;;;2.20;;
25091;SDS011;13082;52.374;4.946;2023-07-29T03:46:34;3.78;;;2.13;;
25091;SDS011;13082;52.374;4.946;2023-07-29T03:49:00;4.13;;;2.08;;
25091;SDS011;13082;52.374;4.946;2023-07-29T03:51:25;1.97;;;1.70;;
25091;SDS011;13082;52.374;4.946;2023-07-29T03:53:51;2.65;;;1.80;;
25091;SDS011;13082;52.374;4.946;2023-07-29T03:56:16;4.57;;;2.35;;
25091;SDS011;13082;52.374;4.946;2023-07-29T03:58:42;2.67;;;2.17;;
25091;SDS011;13082;52.374;4.946;2023-07-29T04:01:09;6.70;;;2.00;;
25091;SDS011;13082;52.374;4.946;2023-07-29T04:03:34;7.45;;;2.17;;
25091;SDS011;13082;52.374;4.946;2023-07-29T04:06:00;2.15;;;1.92;;
25091;SDS011;13082;52.374;4.946;2023-07-29T04:08:26;4.50;;;2.38;;
25091;SDS011;13082;52.374;4.946;2023-07-29T04:10:51;5.20;;;2.10;;
25091;SDS011;13082;52.374;4.946;2023-07-29T04:13:17;5.43;;;2.23;;
25091;SDS011;13082;52.374;4.946;2023-07-29T04:15:43;3.33;;;2.50;;
25091;SDS011;13082;52.374;4.946;2023-07-29T04:18:08;3.90;;;2.10;;
25091;SDS011;13082;52.374;4.946;2023-07-29T04:20:34;5.27;;;1.97;;
25091;SDS011;13082;52.374;4.946;2023-07-29T04:23:00;5.63;;;2.37;;
25091;SDS011;13082;52.374;4.946;2023-07-29T04:25:25;4.80;;;2.40;;
25091;SDS011;13082;52.374;4.946;2023-07-29T04:27:51;4.73;;;2.10;;
25091;SDS011;13082;52.374;4.946;2023-07-29T04:30:16;3.65;;;2.33;;
25091;SDS011;13082;52.374;4.946;2023-07-29T04:32:42;4.47;;;2.37;;
25091;SDS011;13082;52.374;4.946;2023-07-29T04:35:09;3.77;;;2.33;;
25091;SDS011;13082;52.374;4.946;2023-07-29T04:37:35;2.97;;;2.03;;
25091;SDS011;13082;52.374;4.946;2023-07-29T04:40:01;6.03;;;2.30;;
25091;SDS011;13082;52.374;4.946;2023-07-29T04:42:27;4.37;;;2.17;;
25091;SDS011;13082;52.374;4.946;2023-07-29T04:44:52;6.15;;;2.45;;
25091;SDS011;13082;52.374;4.946;2023-07-29T04:47:18;6.25;;;2.40;;
25091;SDS011;13082;52.374;4.946;2023-07-29T04:49:43;3.55;;;2.15;;
25091;SDS011;13082;52.374;4.946;2023-07-29T04:52:09;4.53;;;2.23;;
25091;SDS011;13082;52.374;4.946;2023-07-29T04:54:34;7.53;;;2.30;;
25091;SDS011;13082;52.374;4.946;2023-07-29T04:57:00;5.50;;;2.60;;
25091;SDS011;13082;52.374;4.946;2023-07-29T04:59:26;9.05;;;2.40;;
25091;SDS011;13082;52.374;4.946;2023-07-29T05:01:51;7.07;;;2.30;;
25091;SDS011;13082;52.374;4.946;2023-07-29T05:04:17;3.30;;;2.43;;
25091;SDS011;13082;52.374;4.946;2023-07-29T05:06:42;7.40;;;2.10;;
25091;SDS011;13082;52.374;4.946;2023-07-29T05:09:18;3.28;;;2.30;;
25091;SDS011;13082;52.374;4.946;2023-07-29T05:11:45;5.43;;;2.38;;
25091;SDS011;13082;52.374;4.946;2023-07-29T05:14:12;5.77;;;2.37;;
25091;SDS011;13082;52.374;4.946;2023-07-29T05:16:38;4.68;;;2.63;;
25091;SDS011;13082;52.374;4.946;2023-07-29T05:19:04;5.00;;;2.63;;
25091;SDS011;13082;52.374;4.946;2023-07-29T05:21:29;2.70;;;2.30;;
25091;SDS011;13082;52.374;4.946;2023-07-29T05:23:55;6.25;;;2.83;;
25091;SDS011;13082;52.374;4.946;2023-07-29T05:26:21;3.05;;;2.08;;
25091;SDS011;13082;52.374;4.946;2023-07-29T05:28:47;5.38;;;2.22;;
25091;SDS011;13082;52.374;4.946;2023-07-29T05:31:13;4.20;;;2.27;;
25091;SDS011;13082;52.374;4.946;2023-07-29T05:33:38;3.37;;;2.43;;
25091;SDS011;13082;52.374;4.946;2023-07-29T05:36:04;3.13;;;2.67;;
25091;SDS011;13082;52.374;4.946;2023-07-29T05:38:30;6.57;;;3.05;;
25091;SDS011;13082;52.374;4.946;2023-07-29T05:40:56;3.40;;;2.25;;
25091;SDS011;13082;52.374;4.946;2023-07-29T05:43:24;4.90;;;2.60;;
25091;SDS011;13082;52.374;4.946;2023-07-29T05:45:49;3.72;;;2.53;;
25091;SDS011;13082;52.374;4.946;2023-07-29T05:48:16;6.83;;;2.30;;
25091;SDS011;13082;52.374;4.946;2023-07-29T05:50:41;7.40;;;2.85;;
25091;SDS011;13082;52.374;4.946;2023-07-29T05:53:07;3.90;;;2.38;;
25091;SDS011;13082;52.374;4.946;2023-07-29T05:55:33;8.60;;;2.95;;
25091;SDS011;13082;52.374;4.946;2023-07-29T05:57:59;5.72;;;2.80;;
25091;SDS011;13082;52.374;4.946;2023-07-29T06:00:24;6.00;;;2.90;;
25091;SDS011;13082;52.374;4.946;2023-07-29T06:02:50;4.32;;;2.75;;
25091;SDS011;13082;52.374;4.946;2023-07-29T06:05:15;6.55;;;3.70;;
25091;SDS011;13082;52.374;4.946;2023-07-29T06:07:41;4.55;;;3.03;;
25091;SDS011;13082;52.374;4.946;2023-07-29T06:10:13;5.30;;;3.30;;
25091;SDS011;13082;52.374;4.946;2023-07-29T06:12:43;8.05;;;3.35;;
25091;SDS011;13082;52.374;4.946;2023-07-29T06:15:09;4.38;;;2.65;;
25091;SDS011;13082;52.374;4.946;2023-07-29T06:17:35;5.05;;;2.92;;
25091;SDS011;13082;52.374;4.946;2023-07-29T06:20:00;3.97;;;3.15;;
25091;SDS011;13082;52.374;4.946;2023-07-29T06:22:27;5.30;;;3.08;;
25091;SDS011;13082;52.374;4.946;2023-07-29T06:24:52;7.40;;;2.92;;
25091;SDS011;13082;52.374;4.946;2023-07-29T06:27:18;8.02;;;2.75;;
25091;SDS011;13082;52.374;4.946;2023-07-29T06:29:44;7.78;;;3.03;;
25091;SDS011;13082;52.374;4.946;2023-07-29T06:32:09;4.85;;;2.25;;
25091;SDS011;13082;52.374;4.946;2023-07-29T06:34:35;4.80;;;2.50;;
25091;SDS011;13082;52.374;4.946;2023-07-29T06:37:00;11.05;;;2.97;;
25091;SDS011;13082;52.374;4.946;2023-07-29T06:39:26;8.80;;;2.65;;
25091;SDS011;13082;52.374;4.946;2023-07-29T06:41:52;5.60;;;2.83;;
25091;SDS011;13082;52.374;4.946;2023-07-29T06:44:17;4.40;;;3.17;;
25091;SDS011;13082;52.374;4.946;2023-07-29T06:46:43;9.52;;;2.63;;
25091;SDS011;13082;52.374;4.946;2023-07-29T06:49:09;7.10;;;2.88;;
25091;SDS011;13082;52.374;4.946;2023-07-29T06:51:34;3.42;;;2.17;;
25091;SDS011;13082;52.374;4.946;2023-07-29T06:54:01;3.67;;;2.47;;
25091;SDS011;13082;52.374;4.946;2023-07-29T06:56:27;3.92;;;2.50;;
25091;SDS011;13082;52.374;4.946;2023-07-29T06:58:53;6.20;;;2.72;;
25091;SDS011;13082;52.374;4.946;2023-07-29T07:01:19;5.10;;;2.88;;
25091;SDS011;13082;52.374;4.946;2023-07-29T07:03:44;9.93;;;2.75;;
25091;SDS011;13082;52.374;4.946;2023-07-29T07:06:10;3.25;;;2.58;;
25091;SDS011;13082;52.374;4.946;2023-07-29T07:08:36;5.05;;;3.08;;
25091;SDS011;13082;52.374;4.946;2023-07-29T07:11:01;5.75;;;2.72;;
25091;SDS011;13082;52.374;4.946;2023-07-29T07:13:27;4.32;;;2.72;;
25091;SDS011;13082;52.374;4.946;2023-07-29T07:15:56;6.30;;;2.85;;
25091;SDS011;13082;52.374;4.946;2023-07-29T07:18:22;5.25;;;2.88;;
25091;SDS011;13082;52.374;4.946;2023-07-29T07:20:51;5.10;;;2.72;;
25091;SDS011;13082;52.374;4.946;2023-07-29T07:23:17;3.40;;;2.30;;
25091;SDS011;13082;52.374;4.946;2023-07-29T07:25:43;4.32;;;3.20;;
25091;SDS011;13082;52.374;4.946;2023-07-29T07:28:09;5.00;;;2.58;;
25091;SDS011;13082;52.374;4.946;2023-07-29T07:30:35;5.45;;;2.53;;
25091;SDS011;13082;52.374;4.946;2023-07-29T07:33:04;6.55;;;2.80;;
25091;SDS011;13082;52.374;4.946;2023-07-29T07:35:30;5.45;;;2.58;;
25091;SDS011;13082;52.374;4.946;2023-07-29T07:37:55;3.38;;;2.63;;
25091;SDS011;13082;52.374;4.946;2023-07-29T07:40:21;6.05;;;2.25;;
25091;SDS011;13082;52.374;4.946;2023-07-29T07:42:46;5.53;;;2.42;;
25091;SDS011;13082;52.374;4.946;2023-07-29T07:45:12;4.38;;;1.98;;
25091;SDS011;13082;52.374;4.946;2023-07-29T07:47:37;4.25;;;2.40;;
25091;SDS011;13082;52.374;4.946;2023-07-29T07:50:03;4.68;;;2.13;;
25091;SDS011;13082;52.374;4.946;2023-07-29T07:52:29;4.45;;;2.30;;
25091;SDS011;13082;52.374;4.946;2023-07-29T07:54:55;3.28;;;2.00;;
25091;SDS011;13082;52.374;4.946;2023-07-29T07:57:21;2.78;;;2.22;;
25091;SDS011;13082;52.374;4.946;2023-07-29T07:59:47;4.63;;;2.75;;
25091;SDS011;13082;52.374;4.946;2023-07-29T08:02:12;4.05;;;2.00;;
25091;SDS011;13082;52.374;4.946;2023-07-29T08:04:38;4.47;;;2.10;;
25091;SDS011;13082;52.374;4.946;2023-07-29T08:07:04;4.68;;;2.28;;
25091;SDS011;13082;52.374;4.946;2023-07-29T08:09:29;2.42;;;2.20;;
25091;SDS011;13082;52.374;4.946;2023-07-29T08:11:55;5.45;;;2.40;;
25091;SDS011;13082;52.374;4.946;2023-07-29T08:14:21;2.70;;;2.10;;
25091;SDS011;13082;52.374;4.946;2023-07-29T08:16:47;8.75;;;2.90;;
25091;SDS011;13082;52.374;4.946;2023-07-29T08:19:12;2.00;;;1.80;;
25091;SDS011;13082;52.374;4.946;2023-07-29T08:21:38;3.28;;;2.00;;
25091;SDS011;13082;52.374;4.946;2023-07-29T08:24:04;6.72;;;2.30;;
25091;SDS011;13082;52.374;4.946;2023-07-29T08:26:29;5.55;;;2.33;;
25091;SDS011;13082;52.374;4.946;2023-07-29T08:28:55;4.15;;;2.20;;
25091;SDS011;13082;52.374;4.946;2023-07-29T08:31:21;6.35;;;2.05;;
25091;SDS011;13082;52.374;4.946;2023-07-29T08:33:46;9.43;;;2.00;;
25091;SDS011;13082;52.374;4.946;2023-07-29T08:36:12;4.53;;;1.83;;
25091;SDS011;13082;52.374;4.946;2023-07-29T08:38:37;4.22;;;2.10;;
25091;SDS011;13082;52.374;4.946;2023-07-29T08:43:46;3.50;;;2.00;;
25091;SDS011;13082;52.374;4.946;2023-07-29T08:46:21;4.30;;;1.90;;
25091;SDS011;13082;52.374;4.946;2023-07-29T08:48:47;3.85;;;1.92;;
25091;SDS011;13082;52.374;4.946;2023-07-29T08:51:13;7.75;;;1.92;;
25091;SDS011;13082;52.374;4.946;2023-07-29T08:53:40;5.40;;;1.70;;
25091;SDS011;13082;52.374;4.946;2023-07-29T08:56:06;5.90;;;2.03;;
25091;SDS011;13082;52.374;4.946;2023-07-29T08:58:33;2.95;;;1.75;;
25091;SDS011;13082;52.374;4.946;2023-07-29T09:00:59;4.45;;;2.25;;
25091;SDS011;13082;52.374;4.946;2023-07-29T09:03:25;4.80;;;2.33;;
25091;SDS011;13082;52.374;4.946;2023-07-29T09:05:51;5.70;;;2.17;;
25091;SDS011;13082;52.374;4.946;2023-07-29T09:08:18;3.30;;;1.83;;
25091;SDS011;13082;52.374;4.946;2023-07-29T09:10:46;5.85;;;2.38;;
25091;SDS011;13082;52.374;4.946;2023-07-29T09:13:11;7.05;;;2.60;;
25091;SDS011;13082;52.374;4.946;2023-07-29T09:15:37;4.57;;;2.13;;
25091;SDS011;13082;52.374;4.946;2023-07-29T09:18:10;6.68;;;2.45;;
25091;SDS011;13082;52.374;4.946;2023-07-29T09:20:48;5.75;;;2.75;;
25091;SDS011;13082;52.374;4.946;2023-07-29T09:23:14;6.95;;;2.72;;
25091;SDS011;13082;52.374;4.946;2023-07-29T09:25:41;6.90;;;2.50;;
25091;SDS011;13082;52.374;4.946;2023-07-29T09:28:08;2.67;;;2.15;;
25091;SDS011;13082;52.374;4.946;2023-07-29T09:30:35;4.53;;;2.30;;
25091;SDS011;13082;52.374;4.946;2023-07-29T09:33:01;3.38;;;2.45;;
25091;SDS011;13082;52.374;4.946;2023-07-29T09:35:30;3.22;;;2.33;;
25091;SDS011;13082;52.374;4.946;2023-07-29T09:37:58;5.55;;;2.03;;
25091;SDS011;13082;52.374;4.946;2023-07-29T09:40:23;3.20;;;2.10;;
25091;SDS011;13082;52.374;4.946;2023-07-29T09:45:23;4.60;;;2.25;;
25091;SDS011;13082;52.374;4.946;2023-07-29T09:47:50;7.57;;;2.50;;
25091;SDS011;13082;52.374;4.946;2023-07-29T09:50:16;8.82;;;2.45;;
25091;SDS011;13082;52.374;4.946;2023-07-29T09:52:42;3.20;;;1.95;;
25091;SDS011;13082;52.374;4.946;2023-07-29T09:55:12;3.75;;;2.50;;
25091;SDS011;13082;52.374;4.946;2023-07-29T09:57:40;3.60;;;2.33;;
25091;SDS011;13082;52.374;4.946;2023-07-29T10:00:10;7.30;;;2.03;;
25091;SDS011;13082;52.374;4.946;2023-07-29T10:02:40;4.90;;;2.00;;
25091;SDS011;13082;52.374;4.946;2023-07-29T10:05:07;3.42;;;2.08;;
25091;SDS011;13082;52.374;4.946;2023-07-29T10:07:37;4.78;;;2.50;;
25091;SDS011;13082;52.374;4.946;2023-07-29T10:10:04;2.97;;;1.90;;
25091;SDS011;13082;52.374;4.946;2023-07-29T10:12:31;10.40;;;2.50;;
25091;SDS011;13082;52.374;4.946;2023-07-29T10:14:59;2.95;;;1.98;;
25091;SDS011;13082;52.374;4.946;2023-07-29T10:17:29;7.85;;;2.10;;
25091;SDS011;13082;52.374;4.946;2023-07-29T10:19:56;2.88;;;1.90;;
25091;SDS011;13082;52.374;4.946;2023-07-29T10:22:27;3.42;;;2.08;;
25091;SDS011;13082;52.374;4.946;2023-07-29T10:24:56;2.45;;;1.77;;
25091;SDS011;13082;52.374;4.946;2023-07-29T10:27:27;5.38;;;1.85;;
25091;SDS011;13082;52.374;4.946;2023-07-29T10:29:54;5.85;;;2.10;;
25091;SDS011;13082;52.374;4.946;2023-07-29T10:32:22;3.25;;;1.80;;
25091;SDS011;13082;52.374;4.946;2023-07-29T10:34:51;6.45;;;1.88;;
25091;SDS011;13082;52.374;4.946;2023-07-29T10:37:17;3.88;;;2.03;;
25091;SDS011;13082;52.374;4.946;2023-07-29T10:39:51;4.32;;;2.00;;
25091;SDS011;13082;52.374;4.946;2023-07-29T10:42:19;4.25;;;2.20;;
25091;SDS011;13082;52.374;4.946;2023-07-29T10:47:27;6.82;;;2.40;;
25091;SDS011;13082;52.374;4.946;2023-07-29T10:49:57;5.30;;;2.20;;
25091;SDS011;13082;52.374;4.946;2023-07-29T10:52:30;4.18;;;2.30;;
25091;SDS011;13082;52.374;4.946;2023-07-29T10:54:56;3.42;;;2.28;;
25091;SDS011;13082;52.374;4.946;2023-07-29T10:57:38;4.15;;;2.00;;
25091;SDS011;13082;52.374;4.946;2023-07-29T11:00:06;4.30;;;1.75;;
25091;SDS011;13082;52.374;4.946;2023-07-29T11:02:36;5.07;;;1.80;;
25091;SDS011;13082;52.374;4.946;2023-07-29T11:05:06;3.17;;;2.05;;
25091;SDS011;13082;52.374;4.946;2023-07-29T11:07:49;5.72;;;2.10;;
25091;SDS011;13082;52.374;4.946;2023-07-29T11:10:15;4.68;;;2.20;;
25091;SDS011;13082;52.374;4.946;2023-07-29T11:12:44;1.83;;;1.67;;
25091;SDS011;13082;52.374;4.946;2023-07-29T11:15:16;4.22;;;2.25;;
25091;SDS011;13082;52.374;4.946;2023-07-29T11:17:59;3.72;;;1.85;;
25091;SDS011;13082;52.374;4.946;2023-07-29T11:22:53;6.55;;;2.20;;
25091;SDS011;13082;52.374;4.946;2023-07-29T11:25:21;5.72;;;2.47;;
25091;SDS011;13082;52.374;4.946;2023-07-29T11:27:48;3.65;;;2.33;;
25091;SDS011;13082;52.374;4.946;2023-07-29T11:30:16;4.15;;;1.90;;
25091;SDS011;13082;52.374;4.946;2023-07-29T11:32:43;4.68;;;2.10;;
25091;SDS011;13082;52.374;4.946;2023-07-29T11:35:11;5.50;;;2.30;;
25091;SDS011;13082;52.374;4.946;2023-07-29T11:37:41;7.53;;;1.88;;
25091;SDS011;13082;52.374;4.946;2023-07-29T11:40:08;2.85;;;1.90;;
25091;SDS011;13082;52.374;4.946;2023-07-29T11:42:37;5.75;;;1.63;;
25091;SDS011;13082;52.374;4.946;2023-07-29T11:45:03;2.10;;;1.80;;
25091;SDS011;13082;52.374;4.946;2023-07-29T11:47:31;2.63;;;1.73;;
25091;SDS011;13082;52.374;4.946;2023-07-29T11:50:01;3.30;;;1.70;;
25091;SDS011;13082;52.374;4.946;2023-07-29T11:52:27;2.92;;;1.85;;
25091;SDS011;13082;52.374;4.946;2023-07-29T11:54:53;3.53;;;1.85;;
25091;SDS011;13082;52.374;4.946;2023-07-29T11:57:19;2.75;;;1.75;;
25091;SDS011;13082;52.374;4.946;2023-07-29T11:59:46;2.78;;;2.00;;
25091;SDS011;13082;52.374;4.946;2023-07-29T12:02:13;4.50;;;1.98;;
25091;SDS011;13082;52.374;4.946;2023-07-29T12:04:41;7.05;;;2.42;;
25091;SDS011;13082;52.374;4.946;2023-07-29T12:07:09;4.95;;;2.20;;
25091;SDS011;13082;52.374;4.946;2023-07-29T12:09:35;5.85;;;2.40;;
25091;SDS011;13082;52.374;4.946;2023-07-29T12:12:03;3.65;;;1.98;;
25091;SDS011;13082;52.374;4.946;2023-07-29T12:14:30;3.88;;;1.88;;
25091;SDS011;13082;52.374;4.946;2023-07-29T12:16:56;1.70;;;1.60;;
25091;SDS011;13082;52.374;4.946;2023-07-29T12:19:30;4.65;;;1.75;;
25091;SDS011;13082;52.374;4.946;2023-07-29T12:21:58;1.88;;;1.60;;
25091;SDS011;13082;52.374;4.946;2023-07-29T12:24:24;3.08;;;1.48;;
25091;SDS011;13082;52.374;4.946;2023-07-29T12:26:49;1.85;;;1.55;;
25091;SDS011;13082;52.374;4.946;2023-07-29T12:29:18;2.20;;;1.63;;
25091;SDS011;13082;52.374;4.946;2023-07-29T12:31:45;1.67;;;1.58;;
25091;SDS011;13082;52.374;4.946;2023-07-29T12:34:18;1.48;;;1.25;;
25091;SDS011;13082;52.374;4.946;2023-07-29T12:36:46;1.30;;;1.20;;
25091;SDS011;13082;52.374;4.946;2023-07-29T12:39:15;1.98;;;1.67;;
25091;SDS011;13082;52.374;4.946;2023-07-29T12:41:42;1.30;;;1.20;;
25091;SDS011;13082;52.374;4.946;2023-07-29T12:44:08;2.75;;;1.30;;
25091;SDS011;13082;52.374;4.946;2023-07-29T12:46:34;2.05;;;1.33;;
25091;SDS011;13082;52.374;4.946;2023-07-29T12:48:59;2.67;;;1.30;;
25091;SDS011;13082;52.374;4.946;2023-07-29T12:51:25;1.95;;;1.45;;
25091;SDS011;13082;52.374;4.946;2023-07-29T12:53:50;5.03;;;1.40;;
25091;SDS011;13082;52.374;4.946;2023-07-29T12:56:16;2.55;;;1.23;;
25091;SDS011;13082;52.374;4.946;2023-07-29T12:58:41;2.25;;;1.50;;
25091;SDS011;13082;52.374;4.946;2023-07-29T13:01:07;1.65;;;1.05;;
25091;SDS011;13082;52.374;4.946;2023-07-29T13:03:34;1.25;;;1.05;;
25091;SDS011;13082;52.374;4.946;2023-07-29T13:05:59;2.05;;;1.10;;
25091;SDS011;13082;52.374;4.946;2023-07-29T13:08:25;1.67;;;1.58;;
25091;SDS011;13082;52.374;4.946;2023-07-29T13:10:50;1.40;;;1.30;;
25091;SDS011;13082;52.374;4.946;2023-07-29T13:13:16;1.90;;;1.30;;
25091;SDS011;13082;52.374;4.946;2023-07-29T13:15:41;3.92;;;1.52;;
25091;SDS011;13082;52.374;4.946;2023-07-29T13:18:07;2.67;;;1.30;;
25091;SDS011;13082;52.374;4.946;2023-07-29T13:20:33;1.15;;;1.15;;
25091;SDS011;13082;52.374;4.946;2023-07-29T13:22:59;1.05;;;1.00;;
25091;SDS011;13082;52.374;4.946;2023-07-29T13:25:25;5.68;;;1.10;;
25091;SDS011;13082;52.374;4.946;2023-07-29T13:27:51;1.13;;;1.13;;
25091;SDS011;13082;52.374;4.946;2023-07-29T13:30:16;1.60;;;1.20;;
25091;SDS011;13082;52.374;4.946;2023-07-29T13:32:42;2.20;;;1.38;;
25091;SDS011;13082;52.374;4.946;2023-07-29T13:35:07;1.30;;;1.20;;
25091;SDS011;13082;52.374;4.946;2023-07-29T13:37:33;1.38;;;1.20;;
25091;SDS011;13082;52.374;4.946;2023-07-29T13:39:59;1.33;;;1.10;;
25091;SDS011;13082;52.374;4.946;2023-07-29T13:42:24;1.65;;;1.40;;
25091;SDS011;13082;52.374;4.946;2023-07-29T13:44:50;3.60;;;2.65;;
25091;SDS011;13082;52.374;4.946;2023-07-29T13:47:15;2.72;;;1.55;;
25091;SDS011;13082;52.374;4.946;2023-07-29T13:49:41;2.03;;;1.42;;
25091;SDS011;13082;52.374;4.946;2023-07-29T13:52:07;1.40;;;1.20;;
25091;SDS011;13082;52.374;4.946;2023-07-29T13:54:32;2.10;;;1.60;;
25091;SDS011;13082;52.374;4.946;2023-07-29T13:56:58;1.17;;;1.10;;
25091;SDS011;13082;52.374;4.946;2023-07-29T13:59:24;6.32;;;1.50;;
25091;SDS011;13082;52.374;4.946;2023-07-29T14:01:49;2.80;;;1.65;;
25091;SDS011;13082;52.374;4.946;2023-07-29T14:04:15;1.50;;;1.10;;
25091;SDS011;13082;52.374;4.946;2023-07-29T14:06:40;1.38;;;1.13;;
25091;SDS011;13082;52.374;4.946;2023-07-29T14:09:06;2.75;;;1.42;;
25091;SDS011;13082;52.374;4.946;2023-07-29T14:11:32;4.10;;;1.30;;
25091;SDS011;13082;52.374;4.946;2023-07-29T14:13:58;1.33;;;1.20;;
25091;SDS011;13082;52.374;4.946;2023-07-29T14:16:23;2.83;;;1.20;;
25091;SDS011;13082;52.374;4.946;2023-07-29T14:18:49;1.73;;;1.60;;
25091;SDS011;13082;52.374;4.946;2023-07-29T14:21:14;1.63;;;1.38;;
25091;SDS011;13082;52.374;4.946;2023-07-29T14:23:40;3.00;;;1.50;;
25091;SDS011;13082;52.374;4.946;2023-07-29T14:26:06;1.65;;;1.40;;
25091;SDS011;13082;52.374;4.946;2023-07-29T14:28:34;1.63;;;1.48;;
25091;SDS011;13082;52.374;4.946;2023-07-29T14:31:00;1.50;;;1.40;;
25091;SDS011;13082;52.374;4.946;2023-07-29T14:33:26;1.30;;;1.20;;
25091;SDS011;13082;52.374;4.946;2023-07-29T14:35:52;1.38;;;1.27;;
25091;SDS011;13082;52.374;4.946;2023-07-29T14:38:18;1.27;;;1.17;;
25091;SDS011;13082;52.374;4.946;2023-07-29T14:40:44;1.73;;;1.30;;
25091;SDS011;13082;52.374;4.946;2023-07-29T14:43:12;1.48;;;1.35;;
25091;SDS011;13082;52.374;4.946;2023-07-29T14:45:38;3.13;;;1.35;;
25091;SDS011;13082;52.374;4.946;2023-07-29T14:48:04;2.60;;;1.55;;
25091;SDS011;13082;52.374;4.946;2023-07-29T14:50:29;2.45;;;1.40;;
25091;SDS011;13082;52.374;4.946;2023-07-29T14:52:55;3.72;;;1.77;;
25091;SDS011;13082;52.374;4.946;2023-07-29T14:55:21;3.05;;;1.40;;
25091;SDS011;13082;52.374;4.946;2023-07-29T14:57:46;2.00;;;1.48;;
25091;SDS011;13082;52.374;4.946;2023-07-29T15:00:12;1.65;;;1.50;;
25091;SDS011;13082;52.374;4.946;2023-07-29T15:02:38;2.88;;;1.85;;